createdAt,value
2019-02-23T00:01:09.620Z,59.00
2019-02-23T00:03:39.244Z,58.43
2019-02-23T00:06:08.791Z,55.83
2019-02-23T00:08:38.411Z,54.37
2019-02-23T00:11:08.578Z,58.33
2019-02-23T00:13:38.254Z,56.83
2019-02-23T00:16:08.431Z,56.70
2019-02-23T00:18:39.211Z,56.23
2019-02-23T00:21:08.991Z,58.93
2019-02-23T00:23:38.619Z,58.07
2019-02-23T00:26:08.259Z,59.63
2019-02-23T00:28:37.797Z,58.27
2019-02-23T00:31:08.062Z,57.77
2019-02-23T00:33:37.842Z,61.37
2019-02-23T00:36:07.442Z,60.10
2019-02-23T00:38:37.053Z,59.20
2019-02-23T00:41:06.631Z,57.67
2019-02-23T00:43:36.215Z,59.33
2019-02-23T00:46:05.846Z,56.63
2019-02-23T00:48:35.847Z,60.83
2019-02-23T00:51:05.441Z,60.60
2019-02-23T00:53:35.021Z,60.33
2019-02-23T00:56:04.672Z,58.77
2019-02-23T00:58:34.315Z,57.77
2019-02-23T01:01:03.908Z,58.50
2019-02-23T01:03:33.558Z,57.07
2019-02-23T01:06:03.800Z,60.77
2019-02-23T01:08:34.159Z,57.50
2019-02-23T01:11:04.520Z,58.27
2019-02-23T01:13:34.888Z,59.40
2019-02-23T01:16:04.587Z,61.07
2019-02-23T01:18:34.166Z,57.30
2019-02-23T01:21:03.775Z,58.43
2019-02-23T01:23:33.583Z,56.83
2019-02-23T01:26:03.296Z,58.93
2019-02-23T01:28:32.912Z,61.18
2019-02-23T01:31:02.487Z,57.17
2019-02-23T01:33:32.767Z,57.67
2019-02-23T01:36:02.775Z,59.60
2019-02-23T01:38:32.329Z,59.70
2019-02-23T01:41:01.938Z,60.57
2019-02-23T01:43:32.195Z,60.57
2019-02-23T01:46:01.875Z,61.03
2019-02-23T01:48:32.130Z,56.90
2019-02-23T01:51:01.820Z,57.50
2019-02-23T01:53:32.370Z,58.53
2019-02-23T01:56:01.958Z,58.70
2019-02-23T01:58:32.203Z,59.27
2019-02-23T02:01:01.906Z,55.83
2019-02-23T02:03:32.131Z,55.97
2019-02-23T02:06:02.475Z,54.67
2019-02-23T02:08:32.867Z,57.73
2019-02-23T02:11:02.484Z,55.37
2019-02-23T02:13:32.051Z,58.03
2019-02-23T02:16:02.298Z,57.77
2019-02-23T02:18:31.946Z,58.23
2019-02-23T02:21:01.490Z,58.20
2019-02-23T02:23:31.065Z,57.40
2019-02-23T02:26:00.570Z,58.17
2019-02-23T02:28:30.339Z,54.63
2019-02-23T02:31:00.628Z,53.70
2019-02-23T02:33:30.956Z,55.83
2019-02-23T02:36:00.935Z,53.03
2019-02-23T02:38:30.567Z,52.20
2019-02-23T02:41:00.193Z,53.13
2019-02-23T02:43:30.419Z,58.23
2019-02-23T02:46:00.100Z,53.17
2019-02-23T02:48:29.696Z,51.33
2019-02-23T02:50:59.958Z,58.07
2019-02-23T02:53:30.272Z,55.60
2019-02-23T02:55:59.956Z,54.67
2019-02-23T02:58:29.539Z,56.37
2019-02-23T03:00:59.115Z,56.37
2019-02-23T03:03:28.720Z,55.73
2019-02-23T03:05:59.072Z,56.63
2019-02-23T03:08:28.759Z,55.87
2019-02-23T03:10:58.326Z,53.77
2019-02-23T03:13:28.586Z,56.03
2019-02-23T03:15:58.939Z,55.00
2019-02-23T03:18:28.631Z,60.07
2019-02-23T03:20:58.201Z,58.77
2019-02-23T03:23:27.802Z,61.10
2019-02-23T03:25:58.031Z,60.80
2019-02-23T03:28:27.706Z,56.05
2019-02-23T03:30:57.288Z,56.50
2019-02-23T03:33:26.893Z,58.30
2019-02-23T03:35:56.490Z,59.30
2019-02-23T03:38:26.042Z,63.43
2019-02-23T03:40:55.894Z,60.07
2019-02-23T03:43:26.122Z,60.23
2019-02-23T03:45:55.846Z,65.23
2019-02-23T03:48:26.090Z,61.97
2019-02-23T03:50:56.442Z,55.07
2019-02-23T03:53:26.112Z,56.57
2019-02-23T03:55:56.428Z,59.20
2019-02-23T03:58:26.779Z,62.60
2019-02-23T04:00:56.438Z,59.20
2019-02-23T04:03:26.017Z,61.43
2019-02-23T04:05:55.607Z,60.77
2019-02-23T04:08:25.837Z,60.13
2019-02-23T04:10:55.519Z,59.67
2019-02-23T04:13:25.759Z,61.07
2019-02-23T04:15:55.990Z,57.67
2019-02-23T04:18:25.682Z,58.67
2019-02-23T04:21:01.887Z,58.50
2019-02-23T04:23:26.477Z,55.77
2019-02-23T04:25:56.075Z,56.60
2019-02-23T04:28:26.311Z,57.70
2019-02-23T04:30:56.041Z,56.30
2019-02-23T04:33:26.319Z,57.43
2019-02-23T04:35:57.050Z,57.57
2019-02-23T04:38:26.721Z,56.53
2019-02-23T04:40:56.244Z,55.50
2019-02-23T04:43:25.887Z,57.03
2019-02-23T04:45:55.464Z,60.10
2019-02-23T04:48:25.057Z,59.33
2019-02-23T04:50:54.659Z,58.90
2019-02-23T04:53:24.193Z,58.83
2019-02-23T04:55:53.805Z,58.60
2019-02-23T04:58:23.399Z,57.23
2019-02-23T05:00:53.066Z,57.27
2019-02-23T05:03:22.671Z,58.17
2019-02-23T05:05:52.279Z,60.53
2019-02-23T05:08:21.849Z,57.80
2019-02-23T05:10:51.346Z,60.93
2019-02-23T05:13:20.964Z,56.87
2019-02-23T05:15:50.531Z,62.53
2019-02-23T05:18:20.118Z,58.70
2019-02-23T05:20:50.389Z,58.80
2019-02-23T05:23:20.994Z,62.47
2019-02-23T05:25:50.578Z,62.13
2019-02-23T05:28:20.823Z,64.07
2019-02-23T05:30:50.414Z,61.77
2019-02-23T05:33:20.754Z,64.17
2019-02-23T05:35:50.330Z,58.60
2019-02-23T05:38:21.325Z,60.87
2019-02-23T05:40:50.989Z,64.73
2019-02-23T05:43:20.951Z,66.10
2019-02-23T05:45:50.515Z,61.03
2019-02-23T05:48:20.861Z,63.87
2019-02-23T05:50:50.443Z,66.23
2019-02-23T05:53:20.798Z,64.43
2019-02-23T05:55:50.373Z,63.30
2019-02-23T05:58:20.708Z,61.80
2019-02-23T06:00:50.309Z,65.20
2019-02-23T06:03:20.656Z,62.80
2019-02-23T06:05:50.244Z,62.63
2019-02-23T06:08:21.355Z,65.70
2019-02-23T06:10:50.934Z,63.07
2019-02-23T06:13:20.858Z,59.05
2019-02-23T06:15:50.463Z,60.37
2019-02-23T06:18:20.707Z,56.63
2019-02-23T06:20:50.292Z,60.87
2019-02-23T06:23:20.643Z,63.50
2019-02-23T06:25:50.224Z,53.90
2019-02-23T06:28:20.611Z,56.03
2019-02-23T06:30:50.823Z,54.70
2019-02-23T06:33:20.969Z,50.63
2019-02-23T06:35:50.537Z,57.20
2019-02-23T06:38:21.157Z,54.27
2019-02-23T06:40:50.836Z,50.87
2019-02-23T06:43:21.191Z,52.27
2019-02-23T06:45:50.867Z,53.37
2019-02-23T06:48:20.563Z,49.83
2019-02-23T06:50:50.194Z,47.10
2019-02-23T06:53:20.527Z,49.03
2019-02-23T06:55:50.124Z,47.47
2019-02-23T06:58:20.499Z,49.23
2019-02-23T07:00:50.755Z,53.17
2019-02-23T07:03:21.250Z,51.50
2019-02-23T07:05:50.895Z,49.47
2019-02-23T07:08:20.527Z,52.43
2019-02-23T07:10:50.098Z,53.97
2019-02-23T07:13:20.387Z,51.13
2019-02-23T07:15:50.690Z,51.67
2019-02-23T07:18:20.697Z,51.40
2019-02-23T07:20:50.283Z,51.17
2019-02-23T07:23:20.692Z,48.40
2019-02-23T07:25:50.290Z,47.77
2019-02-23T07:28:20.279Z,47.27
2019-02-23T07:30:50.615Z,49.27
2019-02-23T07:33:32.473Z,51.50
2019-02-23T07:35:51.747Z,46.60
2019-02-23T07:38:21.358Z,55.13
2019-02-23T07:40:51.619Z,55.10
2019-02-23T07:43:21.310Z,58.60
2019-02-23T07:45:50.894Z,66.53
2019-02-23T07:48:20.514Z,61.63
2019-02-23T07:50:52.595Z,56.77
2019-02-23T07:53:22.161Z,58.97
2019-02-23T07:55:51.798Z,72.73
2019-02-23T07:58:21.394Z,68.80
2019-02-23T08:00:51.015Z,68.40
2019-02-23T08:03:20.635Z,65.47
2019-02-23T08:05:50.237Z,57.10
2019-02-23T08:08:20.311Z,65.67
2019-02-23T08:10:49.885Z,64.03
2019-02-23T08:13:20.223Z,67.77
2019-02-23T08:15:49.823Z,80.43
2019-02-23T08:18:20.051Z,75.62
2019-02-23T08:20:50.315Z,77.43
2019-02-23T08:23:20.267Z,85.10
2019-02-23T08:25:49.866Z,96.40
2019-02-23T08:28:20.123Z,96.70
2019-02-23T08:30:49.707Z,94.00
2019-02-23T08:33:20.068Z,87.57
2019-02-23T08:35:49.738Z,81.27
2019-02-23T08:38:20.099Z,66.00
2019-02-23T08:40:49.694Z,63.57
2019-02-23T08:43:20.807Z,53.27
2019-02-23T08:45:50.528Z,45.43
2019-02-23T08:48:20.202Z,38.07
2019-02-23T08:50:49.802Z,37.23
2019-02-23T08:53:20.159Z,31.37
2019-02-23T08:55:49.778Z,30.77
2019-02-23T08:58:20.059Z,27.33
2019-02-23T09:00:50.299Z,25.53
2019-02-23T09:03:20.243Z,24.12
2019-02-23T09:05:49.843Z,23.63
2019-02-23T09:08:19.858Z,24.33
2019-02-23T09:10:50.696Z,22.83
2019-02-23T09:13:20.445Z,21.77
2019-02-23T09:15:50.102Z,22.43
2019-02-23T09:18:20.026Z,22.77
2019-02-23T09:20:51.854Z,21.77
2019-02-23T09:23:21.819Z,20.83
2019-02-23T09:25:51.561Z,21.57
2019-02-23T09:28:22.023Z,22.20
2019-02-23T09:30:51.695Z,22.13
2019-02-23T09:33:22.074Z,22.27
2019-02-23T09:35:51.742Z,21.70
2019-02-23T09:38:21.443Z,20.70
2019-02-23T09:40:51.136Z,21.83
2019-02-23T09:43:20.998Z,21.67
2019-02-23T09:45:50.625Z,22.33
2019-02-23T09:48:20.253Z,21.67
2019-02-23T09:50:52.214Z,22.57
2019-02-23T09:53:22.571Z,21.30
2019-02-23T09:55:52.285Z,21.83
2019-02-23T09:58:22.585Z,20.73
2019-02-23T10:00:52.337Z,20.03
2019-02-23T10:03:22.008Z,20.93
2019-02-23T10:05:52.611Z,20.67
2019-02-23T10:08:22.308Z,20.40
2019-02-23T10:10:51.926Z,21.30
2019-02-23T10:13:22.447Z,20.43
2019-02-23T10:15:52.197Z,19.70
2019-02-23T10:18:22.499Z,21.03
2019-02-23T10:20:52.095Z,20.90
2019-02-23T10:23:22.557Z,21.00
2019-02-23T10:25:52.275Z,20.70
2019-02-23T10:28:22.550Z,20.30
2019-02-23T10:30:52.917Z,21.73
2019-02-23T10:33:22.627Z,20.60
2019-02-23T10:35:52.335Z,20.17
2019-02-23T10:38:22.627Z,21.50
2019-02-23T10:40:52.342Z,20.17
2019-02-23T10:43:21.943Z,20.37
2019-02-23T10:45:51.595Z,19.73
2019-02-23T10:48:21.203Z,19.10
2019-02-23T10:50:50.829Z,20.27
2019-02-23T10:53:20.551Z,19.73
2019-02-23T10:55:50.779Z,19.97
2019-02-23T10:58:20.591Z,20.50
2019-02-23T11:00:50.987Z,19.70
2019-02-23T11:03:20.735Z,19.70
2019-02-23T11:05:50.987Z,20.17
2019-02-23T11:08:21.452Z,19.77
2019-02-23T11:10:51.827Z,19.63
2019-02-23T11:13:22.232Z,18.57
2019-02-23T11:15:51.992Z,19.90
2019-02-23T11:18:22.376Z,19.80
2019-02-23T11:20:52.089Z,19.33
2019-02-23T11:23:22.406Z,19.07
2019-02-23T11:25:52.837Z,18.17
2019-02-23T11:28:22.510Z,18.53
2019-02-23T11:30:52.169Z,19.30
2019-02-23T11:33:22.424Z,19.97
2019-02-23T11:35:52.802Z,19.60
2019-02-23T11:38:22.514Z,19.13
2019-02-23T11:40:52.793Z,18.63
2019-02-23T11:43:22.522Z,18.87
2019-02-23T11:45:52.116Z,18.30
2019-02-23T11:48:21.775Z,18.80
2019-02-23T11:50:52.066Z,18.53
2019-02-23T11:53:21.820Z,19.23
2019-02-23T11:55:51.428Z,19.30
2019-02-23T11:58:21.120Z,18.07
2019-02-23T12:00:50.800Z,18.20
2019-02-23T12:03:20.498Z,20.63
2019-02-23T12:05:50.118Z,17.93
2019-02-23T12:08:19.709Z,18.17
2019-02-23T12:10:49.327Z,18.17
2019-02-23T12:13:19.774Z,17.73
2019-02-23T12:15:49.483Z,18.47
2019-02-23T12:18:19.520Z,19.50
2019-02-23T12:20:49.107Z,17.90
2019-02-23T12:23:19.463Z,16.50
2019-02-23T12:25:49.019Z,17.43
2019-02-23T12:28:19.739Z,18.07
2019-02-23T12:30:49.353Z,19.03
2019-02-23T12:33:20.188Z,18.67
2019-02-23T12:35:50.140Z,18.70
2019-02-23T12:38:19.710Z,18.70
2019-02-23T12:40:49.367Z,17.73
2019-02-23T12:43:19.470Z,19.50
2019-02-23T12:45:49.420Z,18.47
2019-02-23T12:48:19.507Z,18.77
2019-02-23T12:50:49.119Z,18.50
2019-02-23T12:53:19.459Z,17.43
2019-02-23T12:55:49.719Z,18.60
2019-02-23T12:58:19.656Z,17.47
2019-02-23T13:00:49.421Z,18.57
2019-02-23T13:03:19.421Z,18.67
2019-02-23T13:05:49.032Z,18.10
2019-02-23T13:08:19.376Z,18.27
2019-02-23T13:10:53.213Z,17.57
2019-02-23T13:13:38.951Z,18.07
2019-02-23T13:16:30.743Z,18.67
2019-02-23T13:19:28.218Z,17.63
2019-02-23T13:22:20.300Z,17.60
2019-02-23T13:25:01.587Z,18.50
2019-02-23T13:27:56.623Z,17.70
2019-02-23T13:30:57.676Z,19.17
2019-02-23T13:33:44.858Z,19.00
2019-02-23T13:36:51.783Z,18.13
2019-02-23T13:39:46.918Z,18.90
2019-02-23T13:42:28.742Z,18.27
2019-02-23T13:45:05.255Z,19.23
2019-02-23T13:47:49.946Z,18.43
2019-02-23T13:50:25.762Z,18.30
2019-02-23T13:53:17.538Z,17.97
2019-02-23T13:56:10.979Z,18.67
2019-02-23T13:59:05.926Z,19.50
2019-02-23T14:01:53.386Z,18.53
2019-02-23T14:05:07.888Z,17.60
2019-02-23T14:08:06.173Z,19.53
2019-02-23T14:10:46.122Z,19.63
2019-02-23T14:13:35.348Z,59.30
2019-02-23T14:16:55.432Z,28.47
2019-02-23T14:19:43.087Z,18.67
2019-02-23T14:22:43.904Z,17.07
2019-02-23T14:25:30.421Z,18.07
2019-02-23T14:28:21.951Z,17.97
2019-02-23T14:31:20.291Z,17.83
2019-02-23T14:34:02.621Z,18.97
2019-02-23T14:36:44.914Z,18.13
2019-02-23T14:39:51.939Z,17.80
2019-02-23T14:42:49.912Z,17.87
2019-02-23T14:45:47.636Z,17.57
2019-02-23T14:48:36.318Z,17.47
2019-02-23T14:51:52.999Z,17.37
2019-02-23T14:55:00.657Z,17.03
2019-02-23T14:57:32.502Z,17.17
2019-02-23T15:00:05.980Z,18.33
2019-02-23T15:03:38.236Z,18.27
2019-02-23T15:06:32.806Z,18.17
2019-02-23T15:09:21.463Z,16.80
2019-02-23T15:12:19.227Z,24.13
2019-02-23T15:15:13.935Z,16.63
2019-02-23T15:18:05.446Z,16.10
2019-02-23T15:21:03.254Z,17.13
2019-02-23T15:23:46.488Z,16.83
2019-02-23T15:26:33.830Z,16.77
2019-02-23T15:29:09.079Z,17.63
2019-02-23T15:31:56.604Z,16.37
2019-02-23T15:35:04.337Z,16.70
2019-02-23T15:37:37.367Z,18.13
2019-02-23T15:40:28.828Z,17.57
2019-02-23T15:43:32.624Z,17.47
2019-02-23T15:46:24.744Z,17.57
2019-02-23T15:49:01.648Z,17.37
2019-02-23T15:51:31.517Z,17.40
2019-02-23T15:54:01.212Z,19.17
2019-02-23T15:56:30.844Z,17.20
2019-02-23T15:59:00.500Z,16.83
2019-02-23T16:01:30.228Z,18.83
2019-02-23T16:03:59.887Z,17.83
2019-02-23T16:06:31.645Z,18.07
2019-02-23T16:09:01.572Z,17.20
2019-02-23T16:11:31.231Z,17.67
2019-02-23T16:14:00.803Z,17.97
2019-02-23T16:16:30.447Z,18.43
2019-02-23T16:19:00.082Z,18.37
2019-02-23T16:21:29.997Z,18.23
2019-02-23T16:24:00.344Z,18.77
2019-02-23T16:26:32.904Z,19.67
2019-02-23T16:29:02.551Z,18.87
2019-02-23T16:31:32.156Z,18.83
2019-02-23T16:34:01.827Z,20.07
2019-02-23T16:36:31.403Z,19.87
2019-02-23T16:39:01.081Z,19.53
2019-02-23T16:41:30.704Z,19.57
2019-02-23T16:44:01.003Z,20.33
2019-02-23T16:46:30.735Z,19.23
2019-02-23T16:49:00.336Z,18.90
2019-02-23T16:51:29.978Z,18.97
2019-02-23T16:54:02.075Z,18.90
2019-02-23T16:56:31.688Z,20.97
2019-02-23T16:59:02.774Z,19.93
2019-02-23T17:01:32.439Z,20.13
2019-02-23T17:04:02.032Z,19.77
2019-02-23T17:06:32.923Z,19.13
2019-02-23T17:09:02.784Z,19.87
2019-02-23T17:11:32.726Z,20.43
2019-02-23T17:14:02.373Z,19.83
2019-02-23T17:16:32.017Z,20.50
2019-02-23T17:19:01.701Z,21.47
2019-02-23T17:21:32.352Z,21.03
2019-02-23T17:24:01.959Z,19.50
2019-02-23T17:26:32.241Z,22.07
2019-02-23T17:29:02.798Z,22.43
2019-02-23T17:31:33.150Z,20.53
2019-02-23T17:34:02.819Z,20.60
2019-02-23T17:36:32.466Z,20.63
2019-02-23T17:39:05.075Z,20.83
2019-02-23T17:41:34.850Z,21.67
2019-02-23T17:44:04.428Z,22.07
2019-02-23T17:46:34.041Z,21.00
2019-02-23T17:49:03.648Z,23.07
2019-02-23T17:51:33.927Z,115.07
2019-02-23T17:54:03.640Z,78.80
2019-02-23T17:56:33.244Z,35.33
2019-02-23T17:59:06.368Z,37.03
2019-02-23T18:01:36.053Z,33.33
2019-02-23T18:04:05.630Z,28.33
2019-02-23T18:06:37.247Z,26.53
2019-02-23T18:09:06.858Z,26.53
2019-02-23T18:11:36.471Z,25.10
2019-02-23T18:14:06.071Z,26.57
2019-02-23T18:16:35.651Z,26.30
2019-02-23T18:19:05.222Z,27.87
2019-02-23T18:21:34.807Z,25.60
2019-02-23T18:24:05.043Z,24.13
2019-02-23T18:26:34.709Z,24.50
2019-02-23T18:29:04.312Z,25.37
2019-02-23T18:31:33.946Z,22.43
2019-02-23T18:34:03.482Z,23.27
2019-02-23T18:36:33.103Z,22.47
2019-02-23T18:39:02.702Z,21.47
2019-02-23T18:41:32.256Z,20.70
2019-02-23T18:44:01.848Z,20.37
2019-02-23T18:46:32.111Z,21.53
2019-02-23T18:49:01.798Z,21.20
2019-02-23T18:51:32.041Z,19.10
2019-02-23T18:54:01.730Z,21.33
2019-02-23T18:56:31.335Z,18.77
2019-02-23T18:59:00.943Z,19.90
2019-02-23T19:01:30.669Z,20.67
2019-02-23T19:04:00.230Z,20.93
2019-02-23T19:06:29.839Z,21.57
2019-02-23T19:08:59.453Z,21.60
2019-02-23T19:11:29.224Z,21.73
2019-02-23T19:13:58.837Z,20.63
2019-02-23T19:16:28.475Z,21.03
2019-02-23T19:18:58.113Z,21.30
2019-02-23T19:21:27.824Z,21.67
2019-02-23T19:23:57.478Z,22.33
2019-02-23T19:26:27.423Z,22.27
2019-02-23T19:28:59.115Z,22.70
2019-02-23T19:31:28.990Z,22.10
2019-02-23T19:33:59.759Z,22.73
2019-02-23T19:36:30.343Z,21.97
2019-02-23T19:39:00.038Z,23.43
2019-02-23T19:41:30.283Z,23.17
2019-02-23T19:44:00.676Z,23.07
2019-02-23T19:46:30.369Z,22.07
2019-02-23T19:49:01.869Z,21.90
2019-02-23T19:51:31.490Z,22.27
2019-02-23T19:54:01.129Z,23.67
2019-02-23T19:56:31.823Z,23.40
2019-02-23T19:59:02.035Z,22.70
2019-02-23T20:01:31.803Z,23.03
2019-02-23T20:04:01.450Z,22.80
2019-02-23T20:06:31.024Z,22.93
2019-02-23T20:09:00.627Z,23.10
2019-02-23T20:11:30.207Z,24.90
2019-02-23T20:13:59.814Z,23.83
2019-02-23T20:16:29.449Z,25.07
2019-02-23T20:18:59.043Z,27.00
2019-02-23T20:21:28.645Z,26.17
2019-02-23T20:23:58.250Z,26.77
2019-02-23T20:26:27.861Z,25.97
2019-02-23T20:28:57.507Z,27.67
2019-02-23T20:31:27.163Z,28.57
2019-02-23T20:33:56.788Z,27.63
2019-02-23T20:36:26.407Z,26.87
2019-02-23T20:38:57.851Z,28.43
2019-02-23T20:41:27.450Z,29.50
2019-02-23T20:43:57.069Z,29.87
2019-02-23T20:46:26.872Z,30.17
2019-02-23T20:48:56.493Z,29.20
2019-02-23T20:51:26.127Z,28.33
2019-02-23T20:53:55.712Z,29.20
2019-02-23T20:56:25.311Z,27.83
2019-02-23T20:58:54.924Z,28.73
2019-02-23T21:01:24.554Z,30.10
2019-02-23T21:03:54.187Z,28.20
2019-02-23T21:06:23.815Z,31.03
2019-02-23T21:08:53.391Z,33.87
2019-02-23T21:11:23.062Z,35.73
2019-02-23T21:13:52.702Z,31.83
2019-02-23T21:16:22.206Z,30.23
2019-02-23T21:18:51.851Z,28.27
2019-02-23T21:21:22.163Z,27.53
2019-02-23T21:23:51.896Z,26.80
2019-02-23T21:26:22.942Z,42.60
2019-02-23T21:28:52.680Z,27.90
2019-02-23T21:31:22.296Z,30.07
2019-02-23T21:33:51.940Z,28.47
2019-02-23T21:36:22.223Z,25.87
2019-02-23T21:38:52.543Z,24.97
2019-02-23T21:41:22.243Z,25.07
2019-02-23T21:43:51.878Z,24.57
2019-02-23T21:46:21.511Z,23.87
2019-02-23T21:48:51.159Z,24.03
2019-02-23T21:51:20.770Z,23.07
2019-02-23T21:53:50.552Z,21.80
2019-02-23T21:56:20.155Z,22.20
2019-02-23T21:58:49.806Z,21.13
2019-02-23T22:01:19.411Z,21.13
2019-02-23T22:03:49.098Z,20.40
2019-02-23T22:06:19.991Z,19.47
2019-02-23T22:08:49.678Z,20.00
2019-02-23T22:11:19.757Z,20.03
2019-02-23T22:13:49.424Z,23.57
2019-02-23T22:16:19.800Z,22.90
2019-02-23T22:18:49.452Z,23.70
2019-02-23T22:21:19.786Z,21.37
2019-02-23T22:23:49.428Z,23.70
2019-02-23T22:26:19.767Z,24.53
2019-02-23T22:28:49.458Z,24.07
2019-02-23T22:31:19.761Z,23.67
2019-02-23T22:33:49.570Z,25.20
2019-02-23T22:36:19.972Z,23.27
2019-02-23T22:38:49.580Z,23.30
2019-02-23T22:41:19.695Z,23.40
2019-02-23T22:43:49.330Z,23.93
2019-02-23T22:46:19.658Z,22.60
2019-02-23T22:48:49.431Z,23.23
2019-02-23T22:51:19.782Z,22.53
2019-02-23T22:53:49.405Z,21.20
2019-02-23T22:56:19.594Z,20.37
2019-02-23T22:58:49.129Z,21.73
2019-02-23T23:01:19.116Z,21.03
2019-02-23T23:03:48.743Z,21.07
2019-02-23T23:06:19.077Z,20.37
2019-02-23T23:08:48.766Z,20.03
2019-02-23T23:11:18.369Z,21.77
2019-02-23T23:13:48.626Z,22.43
2019-02-23T23:16:19.392Z,21.47
2019-02-23T23:18:48.986Z,23.20
2019-02-23T23:21:19.306Z,22.07
2019-02-23T23:23:48.851Z,23.27
2019-02-23T23:26:19.201Z,24.80
2019-02-23T23:28:48.746Z,25.63
2019-02-23T23:31:18.310Z,25.60
2019-02-23T23:33:47.854Z,26.40
2019-02-23T23:36:19.243Z,27.37
2019-02-23T23:38:48.842Z,26.87
2019-02-23T23:41:19.084Z,25.40
2019-02-23T23:43:48.779Z,25.83
2019-02-23T23:46:19.103Z,24.87
2019-02-23T23:48:48.826Z,24.17
2019-02-23T23:51:19.107Z,24.53
2019-02-23T23:53:48.751Z,24.73
2019-02-23T23:56:19.071Z,23.13
2019-02-23T23:58:48.678Z,25.30
